createdAt,value
2022-10-11T00:01:17.481Z,12.01
2022-10-11T00:04:19.686Z,12.07
2022-10-11T00:07:26.305Z,12.04
2022-10-11T00:10:29.983Z,11.96
2022-10-11T00:13:32.621Z,11.92
2022-10-11T00:16:35.850Z,11.94
2022-10-11T00:19:38.755Z,11.87
2022-10-11T00:22:41.688Z,11.84
2022-10-11T00:25:45.562Z,11.84
2022-10-11T00:28:48.070Z,11.80
2022-10-11T00:31:50.704Z,11.69
2022-10-11T00:34:53.041Z,11.66
2022-10-11T00:37:57.638Z,11.61
2022-10-11T00:41:00.846Z,11.58
2022-10-11T00:44:10.045Z,11.52
2022-10-11T00:47:17.293Z,11.48
2022-10-11T00:50:24.064Z,11.48
2022-10-11T00:53:28.149Z,11.41
2022-10-11T00:56:35.929Z,11.37
2022-10-11T00:59:41.857Z,11.25
2022-10-11T01:02:43.895Z,11.19
2022-10-11T01:05:47.671Z,11.14
2022-10-11T01:08:50.918Z,11.11
2022-10-11T01:11:59.586Z,11.06
2022-10-11T01:15:17.437Z,11.09
2022-10-11T01:18:23.660Z,11.01
2022-10-11T01:21:36.473Z,11.04
2022-10-11T01:24:58.127Z,10.98
2022-10-11T01:28:00.140Z,10.98
2022-10-11T01:31:12.930Z,10.98
2022-10-11T01:34:15.608Z,11.03
2022-10-11T01:37:27.142Z,10.98
2022-10-11T01:40:35.241Z,10.97
2022-10-11T01:43:39.382Z,10.99
2022-10-11T01:46:51.030Z,11.03
2022-10-11T01:49:54.428Z,11.01
2022-10-11T01:52:59.269Z,11.02
2022-10-11T01:56:07.993Z,10.92
2022-10-11T01:59:30.403Z,10.85
2022-10-11T02:02:44.615Z,10.87
2022-10-11T02:05:46.862Z,10.73
2022-10-11T02:08:54.690Z,10.69
2022-10-11T02:11:59.458Z,10.61
2022-10-11T02:15:03.411Z,10.57
2022-10-11T02:18:08.236Z,10.52
2022-10-11T02:21:13.405Z,10.59
2022-10-11T02:24:42.195Z,10.51
2022-10-11T02:27:45.747Z,10.50
2022-10-11T02:30:51.819Z,10.47
2022-10-11T02:33:57.288Z,10.44
2022-10-11T02:37:07.265Z,10.46
2022-10-11T02:40:25.093Z,10.48
2022-10-11T02:43:37.166Z,10.52
2022-10-11T02:46:43.978Z,10.55
2022-10-11T02:49:46.010Z,10.58
2022-10-11T02:52:48.596Z,10.66
2022-10-11T02:55:52.168Z,10.76
2022-10-11T02:58:54.823Z,10.75
2022-10-11T03:01:57.211Z,10.76
2022-10-11T03:05:02.714Z,10.72
2022-10-11T03:08:05.322Z,10.65
2022-10-11T03:11:10.173Z,10.63
2022-10-11T03:14:12.742Z,10.58
2022-10-11T03:17:35.712Z,10.51
2022-10-11T03:20:38.686Z,10.45
2022-10-11T03:23:46.040Z,10.40
2022-10-11T03:26:49.093Z,10.47
2022-10-11T03:29:52.542Z,10.53
2022-10-11T03:32:54.893Z,10.57
2022-10-11T03:35:57.839Z,10.64
2022-10-11T03:39:01.006Z,10.66
2022-10-11T03:42:03.609Z,10.68
2022-10-11T03:45:08.521Z,10.70
2022-10-11T03:48:12.075Z,10.60
2022-10-11T03:51:24.681Z,10.57
2022-10-11T03:54:27.136Z,10.63
2022-10-11T03:57:32.183Z,10.69
2022-10-11T04:00:36.762Z,10.69
2022-10-11T04:03:39.609Z,10.70
2022-10-11T04:06:43.211Z,10.75
2022-10-11T04:09:46.104Z,10.82
2022-10-11T04:12:50.729Z,10.76
2022-10-11T04:15:53.011Z,10.79
2022-10-11T04:18:55.489Z,10.78
2022-10-11T04:21:57.784Z,10.90
2022-10-11T04:25:00.247Z,11.01
2022-10-11T04:28:03.349Z,10.94
2022-10-11T04:31:08.177Z,10.89
2022-10-11T04:34:10.556Z,10.92
2022-10-11T04:37:19.720Z,11.03
2022-10-11T04:40:25.749Z,10.99
2022-10-11T04:43:27.946Z,11.05
2022-10-11T04:46:30.950Z,10.97
2022-10-11T04:49:34.813Z,10.97
2022-10-11T04:52:37.020Z,10.98
2022-10-11T04:55:40.302Z,11.01
2022-10-11T04:58:42.987Z,11.05
2022-10-11T05:01:45.624Z,11.07
2022-10-11T05:04:48.345Z,11.24
2022-10-11T05:07:50.893Z,11.20
2022-10-11T05:10:57.515Z,11.15
2022-10-11T05:13:59.858Z,11.20
2022-10-11T05:17:05.081Z,11.24
2022-10-11T05:20:09.647Z,11.35
2022-10-11T05:23:12.216Z,11.52
2022-10-11T05:26:16.057Z,11.47
2022-10-11T05:29:18.301Z,11.56
2022-10-11T05:32:27.598Z,11.58
2022-10-11T05:35:40.668Z,11.60
2022-10-11T05:38:45.314Z,11.68
2022-10-11T05:41:48.291Z,11.76
2022-10-11T05:44:50.299Z,11.77
2022-10-11T05:47:52.427Z,11.90
2022-10-11T05:51:02.164Z,12.01
2022-10-11T05:54:07.344Z,12.04
2022-10-11T05:57:10.930Z,12.01
2022-10-11T06:00:13.809Z,12.13
2022-10-11T06:03:17.005Z,12.29
2022-10-11T06:06:24.074Z,12.53
2022-10-11T06:09:26.482Z,12.69
2022-10-11T06:12:31.940Z,12.82
2022-10-11T06:15:35.458Z,13.17
2022-10-11T06:18:37.689Z,13.53
2022-10-11T06:21:39.968Z,13.67
2022-10-11T06:24:42.070Z,13.58
2022-10-11T06:27:44.515Z,13.50
2022-10-11T06:30:47.452Z,13.43
2022-10-11T06:33:55.211Z,13.36
2022-10-11T06:36:57.105Z,13.14
2022-10-11T06:39:59.680Z,13.20
2022-10-11T06:43:04.688Z,13.35
2022-10-11T06:46:07.419Z,13.34
2022-10-11T06:49:09.833Z,13.41
2022-10-11T06:52:11.925Z,13.52
2022-10-11T06:55:14.506Z,13.66
2022-10-11T06:58:17.293Z,13.70
2022-10-11T07:01:21.615Z,13.87
2022-10-11T07:04:23.894Z,14.00
2022-10-11T07:07:26.202Z,14.06
2022-10-11T07:10:28.329Z,14.22
2022-10-11T07:13:33.971Z,14.34
2022-10-11T07:16:39.795Z,14.42
2022-10-11T07:19:42.213Z,14.46
2022-10-11T07:22:44.500Z,14.60
2022-10-11T07:25:49.963Z,14.65
2022-10-11T07:28:55.659Z,14.77
2022-10-11T07:31:57.973Z,14.66
2022-10-11T07:35:00.867Z,14.69
2022-10-11T07:38:05.885Z,14.92
2022-10-11T07:41:08.304Z,15.07
2022-10-11T07:44:10.911Z,15.26
2022-10-11T07:47:13.630Z,15.17
2022-10-11T07:50:16.275Z,15.28
2022-10-11T07:53:22.602Z,15.36
2022-10-11T07:56:26.736Z,15.52
2022-10-11T07:59:28.629Z,15.57
2022-10-11T08:02:30.606Z,15.84
2022-10-11T08:05:33.535Z,15.77
2022-10-11T08:08:36.367Z,15.90
2022-10-11T08:11:38.705Z,15.78
2022-10-11T08:14:41.878Z,15.40
2022-10-11T08:17:44.512Z,15.52
2022-10-11T08:20:46.480Z,15.42
2022-10-11T08:23:51.794Z,15.77
2022-10-11T08:26:54.287Z,16.07
2022-10-11T08:29:56.777Z,16.31
2022-10-11T08:32:59.342Z,16.25
2022-10-11T08:36:04.687Z,16.28
2022-10-11T08:39:07.975Z,16.17
2022-10-11T08:42:18.233Z,15.97
2022-10-11T08:45:35.647Z,16.23
2022-10-11T08:48:55.447Z,15.89
2022-10-11T08:52:05.004Z,16.24
2022-10-11T08:55:19.878Z,16.56
2022-10-11T08:58:24.694Z,16.73
2022-10-11T09:01:29.808Z,16.54
2022-10-11T09:04:36.848Z,16.48
2022-10-11T09:07:50.515Z,16.46
2022-10-11T09:11:00.311Z,16.84
2022-10-11T09:14:25.016Z,16.91
2022-10-11T09:17:31.007Z,17.04
2022-10-11T09:20:47.698Z,16.80
2022-10-11T09:24:02.262Z,17.17
2022-10-11T09:27:08.865Z,17.06
2022-10-11T09:30:18.408Z,17.19
2022-10-11T09:33:31.771Z,17.41
2022-10-11T09:36:53.045Z,17.53
2022-10-11T09:40:03.687Z,17.68
2022-10-11T09:43:12.878Z,17.73
2022-10-11T09:46:34.761Z,17.65
2022-10-11T09:49:59.875Z,17.86
2022-10-11T09:53:06.823Z,17.84
2022-10-11T09:56:09.763Z,17.98
2022-10-11T09:59:36.058Z,18.20
2022-10-11T10:02:41.340Z,18.41
2022-10-11T10:05:45.010Z,18.68
2022-10-11T10:08:47.916Z,18.77
2022-10-11T10:11:51.938Z,18.65
2022-10-11T10:15:04.765Z,18.64
2022-10-11T10:18:13.894Z,18.77
2022-10-11T10:21:39.412Z,18.86
2022-10-11T10:24:42.915Z,19.06
2022-10-11T10:27:59.134Z,19.30
2022-10-11T10:31:04.463Z,19.48
2022-10-11T10:34:17.657Z,19.33
2022-10-11T10:37:24.437Z,19.16
2022-10-11T10:40:51.755Z,18.89
2022-10-11T10:43:56.969Z,18.58
2022-10-11T10:46:59.255Z,18.36
2022-10-11T10:50:09.491Z,18.60
2022-10-11T10:53:38.202Z,18.98
2022-10-11T10:56:55.554Z,18.79
2022-10-11T11:00:16.556Z,18.94
2022-10-11T11:03:24.360Z,19.19
2022-10-11T11:06:32.834Z,19.16
2022-10-11T11:09:58.532Z,18.64
2022-10-11T11:13:07.025Z,18.81
2022-10-11T11:16:27.533Z,18.97
2022-10-11T11:20:05.423Z,19.11
2022-10-11T11:23:09.672Z,19.16
2022-10-11T11:26:23.838Z,19.25
2022-10-11T11:29:55.486Z,19.35
2022-10-11T11:33:21.419Z,19.51
2022-10-11T11:36:28.475Z,19.42
2022-10-11T11:39:33.441Z,19.53
2022-10-11T11:42:49.800Z,19.88
2022-10-11T11:45:58.053Z,20.04
2022-10-11T11:49:03.581Z,20.23
2022-10-11T11:52:09.298Z,20.33
2022-10-11T11:55:26.533Z,20.39
2022-10-11T11:58:42.324Z,20.48
2022-10-11T12:02:12.311Z,20.55
2022-10-11T12:05:17.089Z,20.55
2022-10-11T12:08:28.295Z,20.21
2022-10-11T12:11:55.059Z,19.62
2022-10-11T12:15:05.522Z,19.51
2022-10-11T12:18:17.119Z,19.36
2022-10-11T12:21:37.702Z,19.25
2022-10-11T12:24:56.857Z,19.24
2022-10-11T12:28:18.730Z,19.35
2022-10-11T12:31:25.130Z,19.57
2022-10-11T12:34:34.407Z,19.84
2022-10-11T12:37:36.572Z,20.18
2022-10-11T12:40:43.737Z,20.33
2022-10-11T12:43:48.833Z,20.52
2022-10-11T12:46:51.382Z,20.41
2022-10-11T12:50:32.251Z,20.38
2022-10-11T12:54:02.471Z,20.61
2022-10-11T12:57:27.687Z,20.63
2022-10-11T13:01:05.087Z,20.60
2022-10-11T13:04:12.201Z,20.22
2022-10-11T13:07:20.116Z,20.20
2022-10-11T13:10:26.339Z,19.89
2022-10-11T13:13:34.076Z,19.43
2022-10-11T13:16:50.467Z,19.35
2022-10-11T13:20:10.071Z,19.16
2022-10-11T13:23:30.376Z,18.93
2022-10-11T13:26:32.954Z,18.66
2022-10-11T13:29:37.346Z,18.59
2022-10-11T13:32:39.741Z,18.44
2022-10-11T13:35:43.652Z,18.38
2022-10-11T13:38:59.825Z,18.26
2022-10-11T13:42:04.972Z,18.23
2022-10-11T13:45:15.591Z,18.19
2022-10-11T13:48:18.435Z,18.15
2022-10-11T13:51:28.958Z,18.20
2022-10-11T13:54:53.116Z,18.35
2022-10-11T13:57:56.823Z,18.62
2022-10-11T14:01:02.536Z,18.94
2022-10-11T14:04:10.578Z,19.22
2022-10-11T14:07:23.837Z,19.43
2022-10-11T14:10:29.168Z,19.56
2022-10-11T14:13:40.851Z,19.55
2022-10-11T14:16:55.288Z,19.49
2022-10-11T14:20:14.596Z,19.56
2022-10-11T14:23:16.871Z,19.53
2022-10-11T14:26:24.659Z,19.62
2022-10-11T14:29:27.702Z,19.38
2022-10-11T14:32:32.852Z,19.24
2022-10-11T14:35:35.653Z,19.23
2022-10-11T14:38:38.066Z,19.16
2022-10-11T14:41:41.370Z,19.02
2022-10-11T14:44:43.687Z,18.94
2022-10-11T14:47:48.088Z,18.74
2022-10-11T14:51:10.042Z,18.66
2022-10-11T14:54:13.469Z,18.70
2022-10-11T14:57:19.247Z,18.57
2022-10-11T15:00:29.782Z,18.40
2022-10-11T15:03:32.704Z,18.26
2022-10-11T15:06:42.284Z,18.18
2022-10-11T15:09:44.524Z,18.11
2022-10-11T15:12:54.629Z,18.11
2022-10-11T15:15:56.926Z,18.00
2022-10-11T15:19:02.813Z,17.99
2022-10-11T15:22:08.477Z,17.93
2022-10-11T15:25:10.528Z,17.84
2022-10-11T15:28:20.392Z,17.76
2022-10-11T15:31:23.314Z,17.65
2022-10-11T15:34:25.550Z,17.49
2022-10-11T15:37:28.039Z,17.38
2022-10-11T15:40:33.943Z,17.24
2022-10-11T15:43:37.388Z,17.11
2022-10-11T15:46:41.699Z,17.01
2022-10-11T15:49:44.089Z,16.93
2022-10-11T15:52:50.069Z,16.91
2022-10-11T15:55:54.595Z,16.90
2022-10-11T15:58:57.567Z,16.79
2022-10-11T16:01:59.692Z,16.74
2022-10-11T16:05:01.836Z,16.68
2022-10-11T16:08:08.499Z,16.61
2022-10-11T16:11:11.476Z,16.50
2022-10-11T16:14:13.842Z,16.44
2022-10-11T16:17:16.264Z,16.38
2022-10-11T16:20:22.578Z,16.24
2022-10-11T16:23:25.199Z,16.18
2022-10-11T16:26:28.038Z,16.10
2022-10-11T16:29:30.642Z,16.02
2022-10-11T16:32:34.822Z,15.94
2022-10-11T16:35:41.661Z,15.88
2022-10-11T16:38:44.536Z,15.75
2022-10-11T16:41:47.759Z,15.64
2022-10-11T16:44:50.275Z,15.53
2022-10-11T16:47:53.036Z,15.45
2022-10-11T16:51:04.380Z,15.29
2022-10-11T16:54:07.198Z,15.20
2022-10-11T16:57:11.537Z,15.14
2022-10-11T17:00:16.042Z,15.07
2022-10-11T17:03:18.318Z,15.01
2022-10-11T17:06:23.129Z,15.04
2022-10-11T17:09:26.427Z,14.98
2022-10-11T17:12:30.545Z,14.90
2022-10-11T17:15:35.053Z,14.84
2022-10-11T17:18:38.451Z,14.82
2022-10-11T17:21:41.770Z,14.86
2022-10-11T17:24:44.187Z,14.86
2022-10-11T17:27:46.420Z,14.86
2022-10-11T17:30:55.984Z,14.88
2022-10-11T17:33:59.467Z,14.91
2022-10-11T17:37:01.903Z,14.93
2022-10-11T17:40:04.499Z,14.93
2022-10-11T17:43:07.516Z,14.91
2022-10-11T17:46:12.060Z,14.92
2022-10-11T17:49:15.439Z,14.93
2022-10-11T17:52:18.535Z,14.92
2022-10-11T17:55:21.127Z,14.94
2022-10-11T17:58:23.569Z,14.96
2022-10-11T18:01:30.421Z,14.96
2022-10-11T18:04:40.458Z,14.98
2022-10-11T18:07:44.421Z,15.01
2022-10-11T18:10:47.824Z,15.01
2022-10-11T18:13:51.738Z,14.95
2022-10-11T18:16:54.325Z,14.93
2022-10-11T18:20:00.322Z,14.91
2022-10-11T18:23:03.264Z,14.85
2022-10-11T18:26:13.875Z,14.81
2022-10-11T18:29:17.837Z,14.75
2022-10-11T18:32:21.563Z,14.71
2022-10-11T18:35:24.128Z,14.63
2022-10-11T18:38:26.873Z,14.56
2022-10-11T18:41:32.187Z,14.47
2022-10-11T18:44:34.522Z,14.38
2022-10-11T18:47:36.998Z,14.35
2022-10-11T18:50:39.116Z,14.32
2022-10-11T18:53:42.215Z,14.22
2022-10-11T18:56:44.365Z,14.14
2022-10-11T18:59:47.694Z,14.06
2022-10-11T19:02:50.398Z,14.03
2022-10-11T19:05:53.085Z,13.98
2022-10-11T19:08:58.956Z,13.91
2022-10-11T19:12:01.799Z,13.84
2022-10-11T19:15:04.381Z,13.87
2022-10-11T19:18:06.749Z,13.84
2022-10-11T19:21:10.500Z,13.78
2022-10-11T19:24:13.281Z,13.69
2022-10-11T19:27:16.805Z,13.68
2022-10-11T19:30:19.196Z,13.56
2022-10-11T19:33:23.043Z,13.52
2022-10-11T19:36:25.532Z,13.47
2022-10-11T19:39:28.322Z,13.38
2022-10-11T19:42:30.567Z,13.34
2022-10-11T19:45:36.040Z,13.29
2022-10-11T19:48:43.667Z,13.25
2022-10-11T19:51:45.911Z,13.27
2022-10-11T19:54:49.221Z,13.33
2022-10-11T19:57:54.662Z,13.34
2022-10-11T20:01:05.814Z,13.59
2022-10-11T20:04:22.701Z,13.59
2022-10-11T20:07:33.143Z,13.59
2022-10-11T20:10:36.070Z,13.60
2022-10-11T20:13:39.536Z,13.61
2022-10-11T20:16:44.650Z,13.69
2022-10-11T20:19:47.017Z,13.72
2022-10-11T20:22:49.716Z,13.75
2022-10-11T20:26:02.200Z,13.74
2022-10-11T20:29:04.707Z,13.77
2022-10-11T20:32:07.499Z,13.81
2022-10-11T20:35:10.762Z,13.78
2022-10-11T20:38:15.025Z,13.70
2022-10-11T20:41:18.931Z,13.60
2022-10-11T20:44:21.060Z,13.57
2022-10-11T20:47:23.122Z,13.49
2022-10-11T20:50:25.713Z,13.37
2022-10-11T20:53:29.253Z,13.31
2022-10-11T20:56:31.513Z,13.28
2022-10-11T20:59:34.375Z,13.22
2022-10-11T21:02:38.626Z,13.19
2022-10-11T21:05:42.865Z,13.17
2022-10-11T21:08:45.197Z,13.10
2022-10-11T21:11:50.164Z,12.97
2022-10-11T21:14:53.250Z,12.86
2022-10-11T21:17:55.648Z,12.86
2022-10-11T21:21:04.789Z,12.77
2022-10-11T21:24:06.828Z,12.74
2022-10-11T21:27:09.967Z,12.73
2022-10-11T21:30:12.294Z,12.73
2022-10-11T21:33:15.447Z,12.75
2022-10-11T21:36:19.343Z,12.74
2022-10-11T21:39:22.093Z,12.71
2022-10-11T21:42:29.509Z,12.70
2022-10-11T21:45:31.792Z,12.67
2022-10-11T21:48:34.300Z,12.65
2022-10-11T21:51:37.433Z,12.69
2022-10-11T21:54:40.861Z,12.73
2022-10-11T21:57:44.050Z,12.71
2022-10-11T22:00:46.865Z,12.68
2022-10-11T22:03:49.333Z,12.67
2022-10-11T22:06:51.591Z,12.61
2022-10-11T22:09:59.461Z,12.60
2022-10-11T22:13:01.833Z,12.50
2022-10-11T22:16:05.586Z,12.43
2022-10-11T22:19:10.203Z,12.37
2022-10-11T22:22:13.092Z,12.25
2022-10-11T22:25:15.475Z,12.19
2022-10-11T22:28:18.409Z,12.12
2022-10-11T22:31:23.595Z,12.04
2022-10-11T22:34:26.085Z,12.01
2022-10-11T22:37:28.847Z,11.96
2022-10-11T22:40:33.070Z,11.94
2022-10-11T22:43:35.558Z,11.86
2022-10-11T22:46:38.254Z,11.77
2022-10-11T22:49:41.034Z,11.60
2022-10-11T22:52:43.244Z,11.59
2022-10-11T22:55:45.399Z,11.50
2022-10-11T22:58:48.760Z,11.52
2022-10-11T23:01:51.154Z,11.48
2022-10-11T23:04:54.216Z,11.40
2022-10-11T23:07:56.815Z,11.42
2022-10-11T23:11:02.958Z,11.45
2022-10-11T23:14:05.763Z,11.43
2022-10-11T23:17:07.779Z,11.29
2022-10-11T23:20:10.029Z,11.19
2022-10-11T23:23:13.284Z,11.17
2022-10-11T23:26:18.309Z,11.14
2022-10-11T23:29:21.780Z,11.12
2022-10-11T23:32:24.502Z,11.16
2022-10-11T23:35:27.211Z,11.23
2022-10-11T23:38:30.179Z,11.23
2022-10-11T23:41:34.969Z,11.16
2022-10-11T23:44:37.619Z,11.13
2022-10-11T23:47:40.492Z,11.12
2022-10-11T23:50:43.917Z,11.11
2022-10-11T23:53:46.899Z,11.16
2022-10-11T23:56:49.137Z,11.29
2022-10-11T23:59:51.679Z,11.41
